createdAt,value
2018-02-16T00:00:03.531Z,27.33
2018-02-16T00:02:31.362Z,27.13
2018-02-16T00:04:58.883Z,27.50
2018-02-16T00:07:26.435Z,29.17
2018-02-16T00:09:53.947Z,28.90
2018-02-16T00:12:21.502Z,29.70
2018-02-16T00:14:49.078Z,26.93
2018-02-16T00:17:16.611Z,27.90
2018-02-16T00:19:44.154Z,28.07
2018-02-16T00:22:13.486Z,28.60
2018-02-16T00:24:41.015Z,28.20
2018-02-16T00:27:08.624Z,29.27
2018-02-16T00:29:36.160Z,29.20
2018-02-16T00:32:03.688Z,28.50
2018-02-16T00:34:31.243Z,29.97
2018-02-16T00:36:58.788Z,29.67
2018-02-16T00:39:26.338Z,28.67
2018-02-16T00:41:53.876Z,30.73
2018-02-16T00:44:21.402Z,29.03
2018-02-16T00:46:48.959Z,30.50
2018-02-16T00:49:16.495Z,28.83
2018-02-16T00:51:44.048Z,30.33
2018-02-16T00:54:11.878Z,31.33
2018-02-16T00:56:39.435Z,30.67
2018-02-16T00:59:07.304Z,31.03
2018-02-16T01:01:34.841Z,30.27
2018-02-16T01:04:02.358Z,31.00
2018-02-16T01:06:29.918Z,30.20
2018-02-16T01:08:57.515Z,29.03
2018-02-16T01:11:25.047Z,29.63
2018-02-16T01:13:52.596Z,30.13
2018-02-16T01:16:20.446Z,30.27
2018-02-16T01:18:48.011Z,29.53
2018-02-16T01:21:15.545Z,29.10
2018-02-16T01:23:43.322Z,32.20
2018-02-16T01:26:11.087Z,30.20
2018-02-16T01:28:38.956Z,32.37
2018-02-16T01:31:06.498Z,30.80
2018-02-16T01:33:34.034Z,31.23
2018-02-16T01:36:01.590Z,31.13
2018-02-16T01:38:29.120Z,28.80
2018-02-16T01:40:56.700Z,30.80
2018-02-16T01:45:58.229Z,30.73
2018-02-16T01:48:25.809Z,32.20
2018-02-16T01:50:53.322Z,30.87
2018-02-16T01:53:21.227Z,33.90
2018-02-16T01:55:48.793Z,30.43
2018-02-16T01:58:16.645Z,30.67
2018-02-16T02:00:44.187Z,31.80
2018-02-16T02:03:11.729Z,32.40
2018-02-16T02:05:39.327Z,28.90
2018-02-16T02:08:06.867Z,30.50
2018-02-16T02:10:34.674Z,31.53
2018-02-16T02:13:02.191Z,31.80
2018-02-16T02:15:29.743Z,31.80
2018-02-16T02:17:57.278Z,29.93
2018-02-16T02:20:24.814Z,32.57
2018-02-16T02:22:52.373Z,32.30
2018-02-16T02:25:19.890Z,30.47
2018-02-16T02:27:47.693Z,30.27
2018-02-16T02:30:15.562Z,32.33
2018-02-16T02:32:43.117Z,29.20
2018-02-16T02:35:10.659Z,31.87
2018-02-16T02:37:38.197Z,31.90
2018-02-16T02:40:05.786Z,32.00
2018-02-16T02:42:33.321Z,32.33
2018-02-16T02:45:00.856Z,32.17
2018-02-16T02:47:28.943Z,31.30
2018-02-16T02:49:56.473Z,32.93
2018-02-16T02:52:24.008Z,31.97
2018-02-16T02:54:51.566Z,33.07
2018-02-16T02:57:19.122Z,32.00
2018-02-16T02:59:46.659Z,33.17
2018-02-16T03:02:14.465Z,32.10
2018-02-16T03:04:42.003Z,33.10
2018-02-16T03:07:09.563Z,30.93
2018-02-16T03:09:37.129Z,33.37
2018-02-16T03:12:04.710Z,32.23
2018-02-16T03:14:32.231Z,31.10
2018-02-16T03:16:59.806Z,31.63
2018-02-16T03:19:27.334Z,31.93
2018-02-16T03:21:55.147Z,32.83
2018-02-16T03:24:22.712Z,32.80
2018-02-16T03:26:50.298Z,33.17
2018-02-16T03:29:17.845Z,33.17
2018-02-16T03:31:45.407Z,32.20
2018-02-16T03:34:12.939Z,34.27
2018-02-16T03:36:40.453Z,32.37
2018-02-16T03:39:07.998Z,33.00
2018-02-16T03:41:35.542Z,34.63
2018-02-16T03:44:03.070Z,31.60
2018-02-16T03:46:30.624Z,32.57
2018-02-16T03:48:58.166Z,32.30
2018-02-16T03:51:25.701Z,34.43
2018-02-16T03:53:53.347Z,35.33
2018-02-16T03:56:20.882Z,34.30
2018-02-16T03:58:48.426Z,33.10
2018-02-16T04:01:15.998Z,34.27
2018-02-16T04:03:43.520Z,34.73
2018-02-16T04:06:11.065Z,35.73
2018-02-16T04:08:38.642Z,34.93
2018-02-16T04:11:06.200Z,35.37
2018-02-16T04:13:33.739Z,35.43
2018-02-16T04:16:01.310Z,34.87
2018-02-16T04:18:28.859Z,33.67
2018-02-16T04:20:56.707Z,35.40
2018-02-16T04:23:24.357Z,34.37
2018-02-16T04:25:52.140Z,35.27
2018-02-16T04:28:20.003Z,35.70
2018-02-16T04:30:47.552Z,34.63
2018-02-16T04:33:15.435Z,35.80
2018-02-16T04:35:42.965Z,37.47
2018-02-16T04:38:10.537Z,35.57
2018-02-16T04:40:38.070Z,33.00
2018-02-16T04:43:05.589Z,36.80
2018-02-16T04:45:33.141Z,36.70
2018-02-16T04:48:00.677Z,32.67
2018-02-16T04:50:28.206Z,35.47
2018-02-16T04:52:56.028Z,36.07
2018-02-16T04:55:23.550Z,37.17
2018-02-16T04:57:51.346Z,35.87
2018-02-16T05:00:18.906Z,37.80
2018-02-16T05:02:46.426Z,35.83
2018-02-16T05:05:13.987Z,36.80
2018-02-16T05:07:41.540Z,36.80
2018-02-16T05:10:09.073Z,36.80
2018-02-16T05:12:36.599Z,39.60
2018-02-16T05:15:04.162Z,36.37
2018-02-16T05:17:31.949Z,38.60
2018-02-16T05:19:59.506Z,37.53
2018-02-16T05:22:27.073Z,38.57
2018-02-16T05:24:54.608Z,39.27
2018-02-16T05:27:22.144Z,38.90
2018-02-16T05:29:49.704Z,41.77
2018-02-16T05:32:17.243Z,37.67
2018-02-16T05:34:44.774Z,37.90
2018-02-16T05:37:12.390Z,37.10
2018-02-16T05:39:40.189Z,37.77
2018-02-16T05:42:07.724Z,38.47
2018-02-16T05:44:35.310Z,38.60
2018-02-16T05:47:02.835Z,38.53
2018-02-16T05:49:30.378Z,37.10
2018-02-16T05:51:57.925Z,35.70
2018-02-16T05:54:25.463Z,36.60
2018-02-16T05:56:53.002Z,35.20
2018-02-16T05:59:20.563Z,34.90
2018-02-16T06:01:48.404Z,35.87
2018-02-16T06:04:16.305Z,34.67
2018-02-16T06:06:43.910Z,35.30
2018-02-16T06:09:11.461Z,33.03
2018-02-16T06:11:38.990Z,32.90
2018-02-16T06:14:06.617Z,32.67
2018-02-16T06:16:34.297Z,34.30
2018-02-16T06:19:01.992Z,33.90
2018-02-16T06:21:29.596Z,32.30
2018-02-16T06:23:57.138Z,32.40
2018-02-16T06:26:24.658Z,33.17
2018-02-16T06:28:52.260Z,32.53
2018-02-16T06:31:20.145Z,30.83
2018-02-16T06:33:47.654Z,31.90
2018-02-16T06:38:49.122Z,30.07
2018-02-16T06:41:16.690Z,30.20
2018-02-16T06:43:44.251Z,30.07
2018-02-16T06:46:11.784Z,29.90
2018-02-16T06:48:39.407Z,28.43
2018-02-16T06:51:06.922Z,28.77
2018-02-16T06:53:34.798Z,31.10
2018-02-16T06:56:02.408Z,28.70
2018-02-16T06:58:29.949Z,29.03
2018-02-16T07:00:57.513Z,27.80
2018-02-16T07:03:25.385Z,28.87
2018-02-16T07:05:53.119Z,26.07
2018-02-16T07:08:20.645Z,29.70
2018-02-16T07:10:48.435Z,27.17
2018-02-16T07:13:16.015Z,27.40
2018-02-16T07:15:43.537Z,25.00
2018-02-16T07:18:11.124Z,27.23
2018-02-16T07:20:38.650Z,25.93
2018-02-16T07:23:06.188Z,24.40
2018-02-16T07:25:33.770Z,23.90
2018-02-16T07:28:01.467Z,26.43
2018-02-16T07:30:29.820Z,24.70
2018-02-16T07:32:57.391Z,23.33
2018-02-16T07:35:24.930Z,25.43
2018-02-16T07:37:52.543Z,21.67
2018-02-16T07:40:20.723Z,23.60
2018-02-16T07:42:48.264Z,23.80
2018-02-16T07:45:15.806Z,23.00
2018-02-16T07:47:43.368Z,22.40
2018-02-16T07:50:10.930Z,23.60
2018-02-16T07:52:38.457Z,23.13
2018-02-16T07:55:06.015Z,21.47
2018-02-16T07:57:33.548Z,21.80
2018-02-16T08:00:01.082Z,20.40
2018-02-16T08:02:29.832Z,19.50
2018-02-16T08:04:57.809Z,19.90
2018-02-16T08:07:25.333Z,20.30
2018-02-16T08:09:52.917Z,20.17
2018-02-16T08:12:20.438Z,20.10
2018-02-16T08:14:48.741Z,19.70
2018-02-16T08:17:16.314Z,21.10
2018-02-16T08:19:43.881Z,19.30
2018-02-16T08:22:11.684Z,19.03
2018-02-16T08:24:39.259Z,17.90
2018-02-16T08:27:06.928Z,18.50
2018-02-16T08:29:34.485Z,19.40
2018-02-16T08:32:06.223Z,16.50
2018-02-16T08:34:33.759Z,17.67
2018-02-16T08:37:01.330Z,16.73
2018-02-16T08:39:28.925Z,15.83
2018-02-16T08:41:56.457Z,15.57
2018-02-16T08:44:24.288Z,16.57
2018-02-16T08:46:53.304Z,16.63
2018-02-16T08:49:20.866Z,16.50
2018-02-16T08:51:48.537Z,16.80
2018-02-16T08:54:16.178Z,15.13
2018-02-16T08:56:43.806Z,14.57
2018-02-16T08:59:11.342Z,15.43
2018-02-16T09:01:39.023Z,15.30
2018-02-16T09:04:06.564Z,14.70
2018-02-16T09:06:34.208Z,15.37
2018-02-16T09:09:01.813Z,15.40
2018-02-16T09:11:29.686Z,16.23
2018-02-16T09:13:57.649Z,15.40
2018-02-16T09:16:25.202Z,14.03
2018-02-16T09:18:52.735Z,14.63
2018-02-16T09:21:20.292Z,14.90
2018-02-16T09:23:47.870Z,14.30
2018-02-16T09:26:15.641Z,14.30
2018-02-16T09:28:43.506Z,14.10
2018-02-16T09:31:11.070Z,15.30
2018-02-16T09:33:38.934Z,15.00
2018-02-16T09:36:10.703Z,14.70
2018-02-16T09:38:38.284Z,14.93
2018-02-16T09:41:05.843Z,15.03
2018-02-16T09:43:33.480Z,13.30
2018-02-16T09:46:01.006Z,14.63
2018-02-16T09:48:28.558Z,14.47
2018-02-16T09:50:56.158Z,14.30
2018-02-16T09:53:23.684Z,16.83
2018-02-16T09:55:51.237Z,15.10
2018-02-16T09:58:18.794Z,14.87
2018-02-16T10:00:46.420Z,13.83
2018-02-16T10:03:13.978Z,14.43
2018-02-16T10:05:41.536Z,16.10
2018-02-16T10:08:09.211Z,15.00
2018-02-16T10:10:36.759Z,16.33
2018-02-16T10:13:04.345Z,16.90
2018-02-16T10:15:31.941Z,14.83
2018-02-16T10:17:59.461Z,16.23
2018-02-16T10:20:27.081Z,16.13
2018-02-16T10:22:54.973Z,15.10
2018-02-16T10:25:22.566Z,15.47
2018-02-16T10:27:50.497Z,15.87
2018-02-16T10:30:18.370Z,15.70
2018-02-16T10:32:45.904Z,16.70
2018-02-16T10:35:13.480Z,16.40
2018-02-16T10:37:41.032Z,17.00
2018-02-16T10:40:08.813Z,18.07
2018-02-16T10:42:36.431Z,17.20
2018-02-16T10:45:03.996Z,17.80
2018-02-16T10:47:31.591Z,16.97
2018-02-16T10:49:59.179Z,18.73
2018-02-16T10:52:27.024Z,17.63
2018-02-16T10:54:54.554Z,17.03
2018-02-16T10:57:22.122Z,19.40
2018-02-16T10:59:50.013Z,20.40
2018-02-16T11:02:23.310Z,20.00
2018-02-16T11:04:56.551Z,19.10
2018-02-16T11:07:36.523Z,19.50
2018-02-16T11:10:04.081Z,20.20
2018-02-16T11:12:31.702Z,19.57
2018-02-16T11:14:59.311Z,19.13
2018-02-16T11:17:26.860Z,18.83
2018-02-16T11:19:54.470Z,19.40
2018-02-16T11:22:22.007Z,18.07
2018-02-16T11:24:49.536Z,17.87
2018-02-16T11:27:17.203Z,20.85
2018-02-16T11:29:44.783Z,18.97
2018-02-16T11:32:12.602Z,20.53
2018-02-16T11:34:40.206Z,20.13
2018-02-16T11:37:07.765Z,20.73
2018-02-16T11:39:35.322Z,18.77
2018-02-16T11:42:02.919Z,19.37
2018-02-16T11:44:30.491Z,18.07
2018-02-16T11:46:58.351Z,18.50
2018-02-16T11:49:25.875Z,18.47
2018-02-16T11:51:53.458Z,19.50
2018-02-16T11:54:20.980Z,19.30
2018-02-16T11:56:48.522Z,18.77
2018-02-16T11:59:16.352Z,18.57
2018-02-16T12:01:43.926Z,19.27
2018-02-16T12:04:11.778Z,19.77
2018-02-16T12:06:39.782Z,19.10
2018-02-16T12:09:07.341Z,20.10
2018-02-16T12:11:34.897Z,18.30
2018-02-16T12:14:02.738Z,19.10
2018-02-16T12:16:30.279Z,20.10
2018-02-16T12:18:57.823Z,19.33
2018-02-16T12:21:25.629Z,20.20
2018-02-16T12:23:53.500Z,18.60
2018-02-16T12:26:21.028Z,18.27
2018-02-16T12:28:48.611Z,17.83
2018-02-16T12:31:16.135Z,18.00
2018-02-16T12:33:43.677Z,18.93
2018-02-16T12:36:11.237Z,19.33
2018-02-16T12:38:38.770Z,20.03
2018-02-16T12:41:06.311Z,21.30
2018-02-16T12:43:33.857Z,19.50
2018-02-16T12:46:01.399Z,17.70
2018-02-16T12:48:28.938Z,18.60
2018-02-16T12:50:56.765Z,19.60
2018-02-16T12:53:24.632Z,17.00
2018-02-16T12:55:52.398Z,17.47
2018-02-16T12:58:19.970Z,18.13
2018-02-16T13:00:47.485Z,17.50
2018-02-16T13:03:15.017Z,19.00
2018-02-16T13:05:42.590Z,17.90
2018-02-16T13:08:10.152Z,17.40
2018-02-16T13:10:37.694Z,17.57
2018-02-16T13:13:05.266Z,16.90
2018-02-16T13:15:32.807Z,17.77
2018-02-16T13:18:00.688Z,17.20
2018-02-16T13:20:28.256Z,17.47
2018-02-16T13:22:55.999Z,17.20
2018-02-16T13:25:23.525Z,16.43
2018-02-16T13:27:51.140Z,15.93
2018-02-16T13:30:19.882Z,15.10
2018-02-16T13:32:47.446Z,15.80
2018-02-16T13:35:15.016Z,14.70
2018-02-16T13:37:42.558Z,15.00
2018-02-16T13:40:10.143Z,15.97
2018-02-16T13:42:37.724Z,14.77
2018-02-16T13:45:05.245Z,15.77
2018-02-16T13:47:32.927Z,14.70
2018-02-16T13:50:00.533Z,14.60
2018-02-16T13:52:28.365Z,14.37
2018-02-16T13:54:55.885Z,15.10
2018-02-16T13:57:23.458Z,13.97
2018-02-16T13:59:51.066Z,14.03
2018-02-16T14:02:18.891Z,15.10
2018-02-16T14:04:46.450Z,13.57
2018-02-16T14:07:14.012Z,15.00
2018-02-16T14:09:41.569Z,14.07
2018-02-16T14:12:09.450Z,15.20
2018-02-16T14:14:37.310Z,14.13
2018-02-16T14:17:04.826Z,13.10
2018-02-16T14:19:32.740Z,13.27
2018-02-16T14:22:00.505Z,15.20
2018-02-16T14:24:28.268Z,13.10
2018-02-16T14:26:55.881Z,13.80
2018-02-16T14:29:23.415Z,13.77
2018-02-16T14:31:51.276Z,14.63
2018-02-16T14:34:18.869Z,12.53
2018-02-16T14:36:46.422Z,12.80
2018-02-16T14:39:13.953Z,13.00
2018-02-16T14:41:41.571Z,13.17
2018-02-16T14:44:09.162Z,13.47
2018-02-16T14:46:36.656Z,13.97
2018-02-16T14:49:04.204Z,13.53
2018-02-16T14:51:31.941Z,13.90
2018-02-16T14:53:59.517Z,13.50
2018-02-16T14:56:27.195Z,14.30
2018-02-16T14:58:54.731Z,14.23
2018-02-16T15:01:22.297Z,13.90
2018-02-16T15:03:49.850Z,13.57
2018-02-16T15:06:17.408Z,14.13
2018-02-16T15:08:44.943Z,14.40
2018-02-16T15:11:12.525Z,14.13
2018-02-16T15:13:40.130Z,13.37
2018-02-16T15:16:07.661Z,14.80
2018-02-16T15:18:35.235Z,13.23
2018-02-16T15:21:03.104Z,13.57
2018-02-16T15:23:30.677Z,13.60
2018-02-16T15:25:58.410Z,12.50
2018-02-16T15:28:26.134Z,13.00
2018-02-16T15:30:53.667Z,13.00
2018-02-16T15:33:21.232Z,14.10
2018-02-16T15:35:48.759Z,13.53
2018-02-16T15:38:16.296Z,12.50
2018-02-16T15:40:43.898Z,13.73
2018-02-16T15:43:11.515Z,12.97
2018-02-16T15:45:39.072Z,13.70
2018-02-16T15:48:06.634Z,14.30
2018-02-16T15:50:34.195Z,13.03
2018-02-16T15:53:01.722Z,13.47
2018-02-16T15:55:29.492Z,12.83
2018-02-16T15:57:57.033Z,14.53
2018-02-16T16:00:24.583Z,13.13
2018-02-16T16:02:52.175Z,13.43
2018-02-16T16:05:19.744Z,13.27
2018-02-16T16:07:47.278Z,13.20
2018-02-16T16:10:14.883Z,13.43
2018-02-16T16:12:42.414Z,14.10
2018-02-16T16:15:09.959Z,12.77
2018-02-16T16:17:37.570Z,13.70
2018-02-16T16:20:05.099Z,13.47
2018-02-16T16:22:32.706Z,13.37
2018-02-16T16:25:00.320Z,13.07
2018-02-16T16:27:28.128Z,13.03
2018-02-16T16:29:55.674Z,12.83
2018-02-16T16:32:23.256Z,13.30
2018-02-16T16:34:50.822Z,14.27
2018-02-16T16:37:18.380Z,14.50
2018-02-16T16:39:45.991Z,13.73
2018-02-16T16:42:13.513Z,12.50
2018-02-16T16:44:41.086Z,14.30
2018-02-16T16:47:08.702Z,13.60
2018-02-16T16:49:37.430Z,16.00
2018-02-16T16:52:05.643Z,15.13
2018-02-16T16:54:33.753Z,14.80
2018-02-16T16:57:01.369Z,15.27
2018-02-16T16:59:28.918Z,14.80
2018-02-16T17:01:56.472Z,14.47
2018-02-16T17:04:23.999Z,14.80
2018-02-16T17:06:51.534Z,16.93
2018-02-16T17:09:19.134Z,15.00
2018-02-16T17:11:46.770Z,14.70
2018-02-16T17:14:14.399Z,14.90
2018-02-16T17:16:41.986Z,15.87
2018-02-16T17:19:09.627Z,14.70
2018-02-16T17:21:37.891Z,13.67
2018-02-16T17:24:06.274Z,14.40
2018-02-16T17:26:34.644Z,15.40
2018-02-16T17:29:02.773Z,15.30
2018-02-16T17:31:30.865Z,15.80
2018-02-16T17:33:58.395Z,15.97
2018-02-16T17:36:26.204Z,15.90
2018-02-16T17:38:53.876Z,16.10
2018-02-16T17:41:21.413Z,15.10
2018-02-16T17:43:48.937Z,16.50
2018-02-16T17:46:16.542Z,16.50
2018-02-16T17:48:44.107Z,16.70
2018-02-16T17:51:13.434Z,15.83
2018-02-16T17:53:42.451Z,16.60
2018-02-16T17:56:10.189Z,16.70
2018-02-16T17:58:38.731Z,17.00
2018-02-16T18:01:07.573Z,17.40
2018-02-16T18:03:35.379Z,16.63
2018-02-16T18:06:02.922Z,17.17
2018-02-16T18:08:30.497Z,15.53
2018-02-16T18:10:59.254Z,17.70
2018-02-16T18:13:26.847Z,17.07
2018-02-16T18:15:55.136Z,16.43
2018-02-16T18:18:23.476Z,15.67
2018-02-16T18:20:51.246Z,16.90
2018-02-16T18:23:19.359Z,17.17
2018-02-16T18:25:47.090Z,18.40
2018-02-16T18:28:14.806Z,18.67
2018-02-16T18:30:42.664Z,16.80
2018-02-16T18:33:10.218Z,18.00
2018-02-16T18:35:37.765Z,16.13
2018-02-16T18:38:05.713Z,15.87
2018-02-16T18:40:33.262Z,17.97
2018-02-16T18:43:00.838Z,17.33
2018-02-16T18:45:28.409Z,16.70
2018-02-16T18:47:55.963Z,17.43
2018-02-16T18:50:23.485Z,17.43
2018-02-16T18:52:51.851Z,17.13
2018-02-16T18:55:19.380Z,18.00
2018-02-16T18:57:46.945Z,18.47
2018-02-16T19:00:14.512Z,16.63
2018-02-16T19:02:42.391Z,17.20
2018-02-16T19:05:10.368Z,15.87
2018-02-16T19:07:37.905Z,17.07
2018-02-16T19:10:05.446Z,16.73
2018-02-16T19:12:32.997Z,17.83
2018-02-16T19:15:00.544Z,16.20
2018-02-16T19:17:28.724Z,17.17
2018-02-16T19:19:56.253Z,16.40
2018-02-16T19:22:23.847Z,16.50
2018-02-16T19:24:51.417Z,17.13
2018-02-16T19:27:19.344Z,18.10
2018-02-16T19:29:48.070Z,17.03
2018-02-16T19:32:16.036Z,18.63
2018-02-16T19:34:43.558Z,17.93
2018-02-16T19:37:11.133Z,17.73
2018-02-16T19:39:49.591Z,17.80
2018-02-16T19:42:18.092Z,18.47
2018-02-16T19:44:45.608Z,16.67
2018-02-16T19:47:13.143Z,18.20
2018-02-16T19:49:40.707Z,18.10
2018-02-16T19:52:08.255Z,17.57
2018-02-16T19:54:35.799Z,17.63
2018-02-16T19:57:03.369Z,18.00
2018-02-16T19:59:30.969Z,17.57
2018-02-16T20:01:58.547Z,19.00
2018-02-16T20:04:26.114Z,19.80
2018-02-16T20:06:53.670Z,17.70
2018-02-16T20:09:21.216Z,18.50
2018-02-16T20:11:48.787Z,18.13
2018-02-16T20:14:16.315Z,18.80
2018-02-16T20:16:43.951Z,19.10
2018-02-16T20:19:11.567Z,17.90
2018-02-16T20:21:39.126Z,19.17
2018-02-16T20:24:06.664Z,18.37
2018-02-16T20:26:34.234Z,19.23
2018-02-16T20:29:02.071Z,18.60
2018-02-16T20:31:29.635Z,19.30
2018-02-16T20:33:57.232Z,18.80
2018-02-16T20:36:24.786Z,18.47
2018-02-16T20:38:52.329Z,19.07
2018-02-16T20:41:19.886Z,18.70
2018-02-16T20:43:47.424Z,19.00
2018-02-16T20:46:14.978Z,18.30
2018-02-16T20:48:42.583Z,19.20
2018-02-16T20:51:10.421Z,19.30
2018-02-16T20:53:37.986Z,17.93
2018-02-16T20:56:05.533Z,18.37
2018-02-16T20:58:33.114Z,20.23
2018-02-16T21:01:01.082Z,17.80
2018-02-16T21:03:28.638Z,18.40
2018-02-16T21:05:56.220Z,19.20
2018-02-16T21:08:24.059Z,18.60
2018-02-16T21:10:51.623Z,18.73
2018-02-16T21:13:19.194Z,19.30
2018-02-16T21:15:47.057Z,18.57
2018-02-16T21:18:14.618Z,18.40
2018-02-16T21:20:42.184Z,18.80
2018-02-16T21:23:09.742Z,19.97
2018-02-16T21:25:37.303Z,19.77
2018-02-16T21:28:04.884Z,18.37
2018-02-16T21:30:32.402Z,18.33
2018-02-16T21:33:00.285Z,20.80
2018-02-16T21:35:27.838Z,19.67
2018-02-16T21:37:55.416Z,19.73
2018-02-16T21:40:22.993Z,19.40
2018-02-16T21:42:50.542Z,19.90
2018-02-16T21:45:18.068Z,18.60
2018-02-16T21:47:45.640Z,18.10
2018-02-16T21:50:13.175Z,19.03
2018-02-16T21:52:40.783Z,17.40
2018-02-16T21:55:08.391Z,19.63
2018-02-16T21:57:35.977Z,20.23
2018-02-16T22:00:03.557Z,18.90
2018-02-16T22:02:31.201Z,18.30
2018-02-16T22:04:58.722Z,18.07
2018-02-16T22:07:26.242Z,18.67
2018-02-16T22:09:53.801Z,18.23
2018-02-16T22:12:21.323Z,18.90
2018-02-16T22:14:48.866Z,18.93
2018-02-16T22:17:16.435Z,17.90
2018-02-16T22:19:43.950Z,18.63
2018-02-16T22:22:11.489Z,18.10
2018-02-16T22:24:39.049Z,18.33
2018-02-16T22:27:06.577Z,18.30
2018-02-16T22:29:34.089Z,17.90
2018-02-16T22:32:01.665Z,19.20
2018-02-16T22:34:29.194Z,17.90
2018-02-16T22:36:56.730Z,19.10
2018-02-16T22:39:24.281Z,19.07
2018-02-16T22:41:51.837Z,19.53
2018-02-16T22:44:19.844Z,18.80
2018-02-16T22:46:47.743Z,19.27
2018-02-16T22:49:15.287Z,20.43
2018-02-16T22:51:42.840Z,17.60
2018-02-16T22:54:10.719Z,18.90
2018-02-16T22:56:38.269Z,18.03
2018-02-16T22:59:05.825Z,18.53
2018-02-16T23:01:33.406Z,20.00
2018-02-16T23:04:01.028Z,19.03
2018-02-16T23:06:28.658Z,19.03
2018-02-16T23:08:57.088Z,19.30
2018-02-16T23:11:24.701Z,18.60
2018-02-16T23:13:52.534Z,20.97
2018-02-16T23:16:20.079Z,19.03
2018-02-16T23:18:47.804Z,18.87
2018-02-16T23:21:15.387Z,17.97
2018-02-16T23:23:42.947Z,18.60
2018-02-16T23:26:10.743Z,17.90
2018-02-16T23:28:38.513Z,18.00
2018-02-16T23:31:06.089Z,19.83
2018-02-16T23:35:54.850Z,17.50
2018-02-16T23:38:22.416Z,18.30
2018-02-16T23:40:50.187Z,18.30
2018-02-16T23:43:17.669Z,19.53
2018-02-16T23:45:45.211Z,19.70
2018-02-16T23:48:12.749Z,18.27
2018-02-16T23:50:40.303Z,18.17
2018-02-16T23:53:07.863Z,18.20
2018-02-16T23:55:35.423Z,18.73
2018-02-16T23:58:03.050Z,19.40
